Time;durP1;ratioP1;P1;durP2;ratioP2;P2;SDS_P1;SDS_P2;PMS_P1;PMS_P2;Temp;Humidity;BMP_temperature;BMP_pressure;BME280_temperature;BME280_humidity;BME280_pressure;Samples;Min_cycle;Max_cycle;Signal;HPM_P1;HPM_P2
2021/12/26 00:02:09;;;;;;;8.10;3.60;;;;;;;;;;5073307;28;20847;-61
2021/12/26 00:04:35;;;;;;;4.83;3.53;;;;;;;;;;5071570;28;20438;-61
2021/12/26 00:07:03;;;;;;;5.37;3.87;;;;;;;;;;5071461;28;20499;-61
2021/12/26 00:09:30;;;;;;;4.90;4.00;;;;;;;;;;5073387;28;20468;-61
2021/12/26 00:11:58;;;;;;;4.03;3.50;;;;;;;;;;5073346;28;20433;-61
2021/12/26 00:14:24;;;;;;;4.70;3.60;;;;;;;;;;5073209;28;20555;-61
2021/12/26 00:16:50;;;;;;;4.67;3.50;;;;;;;;;;5073237;28;20446;-62
2021/12/26 00:19:16;;;;;;;4.30;3.77;;;;;;;;;;5073215;28;20287;-63
2021/12/26 00:21:42;;;;;;;4.30;3.27;;;;;;;;;;5072154;28;20434;-60
2021/12/26 00:24:10;;;;;;;4.87;3.40;;;;;;;;;;5072524;28;20484;-63
2021/12/26 00:26:37;;;;;;;5.07;3.80;;;;;;;;;;5072338;28;20885;-60
2021/12/26 00:29:04;;;;;;;6.00;3.57;;;;;;;;;;5072384;28;20473;-60
2021/12/26 00:31:30;;;;;;;5.57;4.97;;;;;;;;;;5072563;28;20781;-61
2021/12/26 00:33:56;;;;;;;10.97;4.50;;;;;;;;;;5072257;28;20488;-62
2021/12/26 00:36:22;;;;;;;4.30;3.43;;;;;;;;;;5072185;28;20512;-62
2021/12/26 00:38:48;;;;;;;4.63;4.17;;;;;;;;;;5072418;28;20438;-61
2021/12/26 00:41:15;;;;;;;4.33;3.53;;;;;;;;;;5071946;28;20470;-60
2021/12/26 00:43:41;;;;;;;4.17;3.53;;;;;;;;;;5072449;28;20437;-60
2021/12/26 00:46:07;;;;;;;5.03;3.60;;;;;;;;;;5072145;28;20874;-61
2021/12/26 00:48:34;;;;;;;5.97;3.73;;;;;;;;;;5072064;28;20441;-61
2021/12/26 00:51:00;;;;;;;5.57;3.97;;;;;;;;;;5070841;28;20430;-61
2021/12/26 00:53:28;;;;;;;6.57;4.17;;;;;;;;;;5071953;28;20951;-61
2021/12/26 00:55:54;;;;;;;5.77;4.10;;;;;;;;;;5071876;28;20477;-61
2021/12/26 00:58:21;;;;;;;6.67;4.60;;;;;;;;;;5071590;28;20931;-62
2021/12/26 01:00:49;;;;;;;6.23;4.17;;;;;;;;;;5071787;28;20545;-61
2021/12/26 01:03:16;;;;;;;7.27;4.20;;;;;;;;;;5071719;28;20461;-61
2021/12/26 01:05:43;;;;;;;7.50;4.63;;;;;;;;;;5071467;28;20461;-62
2021/12/26 01:08:10;;;;;;;5.17;3.83;;;;;;;;;;5071380;28;20442;-61
2021/12/26 01:10:38;;;;;;;5.50;4.17;;;;;;;;;;5071500;28;20595;-61
2021/12/26 01:13:16;;;;;;;4.97;4.47;;;;;;;;;;5071511;28;20556;-61
2021/12/26 01:15:44;;;;;;;5.87;4.63;;;;;;;;;;5071718;28;20429;-61
2021/12/26 01:18:10;;;;;;;7.90;4.60;;;;;;;;;;5071393;28;20936;-61
2021/12/26 01:20:46;;;;;;;6.57;5.23;;;;;;;;;;5071611;28;20441;-61
2021/12/26 01:23:13;;;;;;;4.97;4.40;;;;;;;;;;5071496;28;20434;-61
2021/12/26 01:25:39;;;;;;;6.47;4.33;;;;;;;;;;5071711;28;20484;-60
2021/12/26 01:28:05;;;;;;;8.47;4.20;;;;;;;;;;5071331;28;20834;-60
2021/12/26 01:30:32;;;;;;;5.50;4.30;;;;;;;;;;5071585;28;20425;-60
2021/12/26 01:32:59;;;;;;;5.70;3.67;;;;;;;;;;5071627;28;20434;-61
2021/12/26 01:35:25;;;;;;;6.57;4.30;;;;;;;;;;5071382;28;20857;-60
2021/12/26 01:37:51;;;;;;;6.67;4.37;;;;;;;;;;5071612;28;20430;-60
2021/12/26 01:40:17;;;;;;;4.47;4.03;;;;;;;;;;5071206;28;20308;-60
2021/12/26 01:42:44;;;;;;;5.83;4.73;;;;;;;;;;5071245;28;20235;-60
2021/12/26 01:45:11;;;;;;;6.07;4.33;;;;;;;;;;5071265;28;20430;-61
2021/12/26 01:47:37;;;;;;;4.50;4.10;;;;;;;;;;5071275;28;20433;-61
2021/12/26 01:50:05;;;;;;;5.30;4.10;;;;;;;;;;5071140;28;20509;-61
2021/12/26 01:52:31;;;;;;;5.90;4.43;;;;;;;;;;5071464;28;20445;-61
2021/12/26 01:55:12;;;;;;;5.07;4.00;;;;;;;;;;5071309;28;20481;-61
2021/12/26 01:57:38;;;;;;;5.97;4.57;;;;;;;;;;5071290;28;20445;-61
2021/12/26 02:00:05;;;;;;;5.87;5.03;;;;;;;;;;5071027;28;20503;-60
2021/12/26 02:02:30;;;;;;;6.93;4.50;;;;;;;;;;5071455;28;20226;-61
2021/12/26 02:04:56;;;;;;;6.57;4.20;;;;;;;;;;5071107;28;20964;-62
2021/12/26 02:07:24;;;;;;;5.03;4.10;;;;;;;;;;5071319;28;20203;-61
2021/12/26 02:09:50;;;;;;;7.13;4.13;;;;;;;;;;5071214;28;20204;-60
2021/12/26 02:12:16;;;;;;;4.53;4.13;;;;;;;;;;5071060;28;20499;-61
2021/12/26 02:14:42;;;;;;;5.10;4.40;;;;;;;;;;5071113;28;20258;-60
2021/12/26 02:17:08;;;;;;;6.77;4.27;;;;;;;;;;5071005;28;20473;-60
2021/12/26 02:19:34;;;;;;;4.43;4.03;;;;;;;;;;5073327;28;20196;-61
2021/12/26 02:22:12;;;;;;;5.27;4.13;;;;;;;;;;5074860;28;20203;-60
2021/12/26 02:27:32;;;;;;;6.03;4.27;;;;;;;;;;5074921;28;20430;-61
2021/12/26 02:29:59;;;;;;;4.83;3.83;;;;;;;;;;5074500;28;20803;-61
2021/12/26 02:32:25;;;;;;;4.20;3.80;;;;;;;;;;5074640;28;20433;-61
2021/12/26 02:34:51;;;;;;;6.20;4.60;;;;;;;;;;5074530;28;20484;-60
2021/12/26 02:37:19;;;;;;;5.53;4.60;;;;;;;;;;5074470;28;20520;-61
2021/12/26 02:39:45;;;;;;;5.63;4.50;;;;;;;;;;5074371;28;20430;-60
2021/12/26 02:42:11;;;;;;;5.50;4.53;;;;;;;;;;5074239;28;20441;-60
2021/12/26 02:44:37;;;;;;;5.80;4.20;;;;;;;;;;5074490;28;20191;-61
2021/12/26 02:47:04;;;;;;;6.43;4.57;;;;;;;;;;5073172;28;20459;-61
2021/12/26 02:49:30;;;;;;;5.53;4.00;;;;;;;;;;5074281;28;20587;-61
2021/12/26 02:51:56;;;;;;;8.37;4.60;;;;;;;;;;5074243;28;20483;-60
2021/12/26 02:54:25;;;;;;;5.47;4.40;;;;;;;;;;5074255;28;20524;-62
2021/12/26 02:56:51;;;;;;;5.10;4.50;;;;;;;;;;5074140;28;20438;-61
2021/12/26 02:59:17;;;;;;;6.13;4.47;;;;;;;;;;5074218;28;20222;-61
2021/12/26 03:01:43;;;;;;;5.57;4.50;;;;;;;;;;5074297;28;20442;-62
2021/12/26 03:04:10;;;;;;;5.37;4.67;;;;;;;;;;5074342;28;20938;-61
2021/12/26 03:09:09;;;;;;;6.10;4.43;;;;;;;;;;5073697;28;20430;-59
2021/12/26 03:11:38;;;;;;;4.83;4.37;;;;;;;;;;5073917;28;20487;-59
2021/12/26 03:14:04;;;;;;;5.17;4.13;;;;;;;;;;5073832;28;20664;-61
2021/12/26 03:16:30;;;;;;;9.07;4.30;;;;;;;;;;5074133;28;20434;-61
2021/12/26 03:18:57;;;;;;;5.50;4.57;;;;;;;;;;5073829;28;20794;-61
2021/12/26 03:21:23;;;;;;;5.87;5.27;;;;;;;;;;5073857;28;20613;-61
2021/12/26 03:23:49;;;;;;;5.27;4.63;;;;;;;;;;5073894;28;20446;-61
2021/12/26 03:26:15;;;;;;;5.73;4.30;;;;;;;;;;5073900;28;20262;-61
2021/12/26 03:28:42;;;;;;;6.20;4.50;;;;;;;;;;5073633;28;20442;-61
2021/12/26 03:31:08;;;;;;;6.43;4.53;;;;;;;;;;5073415;28;20238;-60
2021/12/26 03:33:34;;;;;;;6.50;4.90;;;;;;;;;;5073579;28;20509;-60
2021/12/26 03:36:00;;;;;;;6.87;4.73;;;;;;;;;;5073561;28;20195;-60
2021/12/26 03:38:29;;;;;;;8.43;4.70;;;;;;;;;;5073609;28;20452;-61
2021/12/26 03:40:55;;;;;;;6.20;4.43;;;;;;;;;;5073326;28;20492;-61
2021/12/26 03:43:22;;;;;;;6.13;4.68;;;;;;;;;;5073178;28;20438;-61
2021/12/26 03:45:50;;;;;;;5.68;4.53;;;;;;;;;;5073461;28;20245;-61
2021/12/26 03:48:16;;;;;;;6.50;4.60;;;;;;;;;;5073281;28;20289;-61
2021/12/26 03:50:43;;;;;;;6.53;5.03;;;;;;;;;;5073153;28;20835;-61
2021/12/26 03:53:10;;;;;;;5.77;4.37;;;;;;;;;;5073111;28;20520;-61
2021/12/26 03:55:36;;;;;;;5.63;4.47;;;;;;;;;;5073005;28;20430;-61
2021/12/26 03:58:02;;;;;;;6.37;4.80;;;;;;;;;;5072997;28;20457;-61
2021/12/26 04:00:29;;;;;;;5.73;4.87;;;;;;;;;;5072876;28;20935;-61
2021/12/26 04:02:57;;;;;;;6.70;4.83;;;;;;;;;;5072892;28;20448;-61
2021/12/26 04:05:23;;;;;;;6.37;5.27;;;;;;;;;;5073123;28;20942;-61
2021/12/26 04:07:49;;;;;;;7.03;5.00;;;;;;;;;;5072649;28;20843;-61
2021/12/26 04:10:16;;;;;;;5.27;4.60;;;;;;;;;;5072743;28;20446;-61
2021/12/26 04:12:46;;;;;;;7.37;5.03;;;;;;;;;;5072611;28;20874;-60
2021/12/26 04:15:13;;;;;;;6.00;5.00;;;;;;;;;;5072558;28;20465;-61
2021/12/26 04:17:39;;;;;;;8.00;5.00;;;;;;;;;;5072628;28;20454;-61
2021/12/26 04:20:08;;;;;;;6.50;4.63;;;;;;;;;;5068778;28;20440;-61
2021/12/26 04:22:34;;;;;;;6.47;5.17;;;;;;;;;;5072084;28;20457;-61
2021/12/26 04:25:00;;;;;;;6.97;5.07;;;;;;;;;;5071744;28;20436;-61
2021/12/26 04:27:26;;;;;;;8.03;4.70;;;;;;;;;;5072219;28;20441;-61
2021/12/26 04:29:52;;;;;;;6.53;5.17;;;;;;;;;;5071995;28;20430;-61
2021/12/26 04:32:19;;;;;;;7.27;4.93;;;;;;;;;;5072334;28;20450;-61
2021/12/26 04:34:45;;;;;;;7.33;4.77;;;;;;;;;;5072493;28;20469;-61
2021/12/26 04:37:12;;;;;;;5.60;5.00;;;;;;;;;;5072206;28;20448;-61
2021/12/26 04:39:38;;;;;;;7.17;5.20;;;;;;;;;;5071869;28;20929;-61
2021/12/26 04:42:04;;;;;;;5.63;4.90;;;;;;;;;;5071513;28;20425;-61
2021/12/26 04:44:30;;;;;;;5.70;4.93;;;;;;;;;;5072053;28;20196;-63
2021/12/26 04:46:56;;;;;;;5.57;4.67;;;;;;;;;;5071990;28;20430;-61
2021/12/26 04:49:22;;;;;;;6.73;4.60;;;;;;;;;;5072123;28;20488;-61
2021/12/26 04:51:48;;;;;;;5.67;4.70;;;;;;;;;;5071847;28;20434;-61
2021/12/26 04:54:15;;;;;;;5.97;4.77;;;;;;;;;;5071719;28;20477;-60
2021/12/26 04:56:41;;;;;;;6.73;4.70;;;;;;;;;;5071967;28;20441;-60
2021/12/26 04:59:07;;;;;;;5.60;4.63;;;;;;;;;;5071847;28;20445;-60
2021/12/26 05:01:34;;;;;;;7.23;5.13;;;;;;;;;;5072068;28;20879;-61
2021/12/26 05:04:00;;;;;;;5.87;4.77;;;;;;;;;;5071949;28;20503;-60
2021/12/26 05:06:26;;;;;;;5.63;4.60;;;;;;;;;;5071927;28;20485;-60
2021/12/26 05:08:52;;;;;;;6.47;4.47;;;;;;;;;;5071898;28;20485;-60
2021/12/26 05:11:20;;;;;;;6.77;4.63;;;;;;;;;;5071635;28;20936;-60
2021/12/26 05:13:46;;;;;;;7.40;4.57;;;;;;;;;;5071700;28;20243;-59
2021/12/26 05:16:12;;;;;;;9.80;4.57;;;;;;;;;;5071457;28;20464;-60
2021/12/26 05:18:38;;;;;;;6.10;4.60;;;;;;;;;;5071697;28;20445;-59
2021/12/26 05:21:04;;;;;;;4.40;4.00;;;;;;;;;;5071599;28;20791;-59
2021/12/26 05:23:30;;;;;;;6.70;4.60;;;;;;;;;;5071501;28;20513;-59
2021/12/26 05:25:56;;;;;;;5.57;4.33;;;;;;;;;;5071551;28;20525;-60
2021/12/26 05:28:23;;;;;;;5.97;4.60;;;;;;;;;;5071623;28;20438;-59
2021/12/26 05:30:49;;;;;;;6.73;4.47;;;;;;;;;;5071499;28;20452;-60
2021/12/26 05:33:15;;;;;;;4.37;3.97;;;;;;;;;;5071369;28;20968;-60
2021/12/26 05:35:41;;;;;;;4.80;4.20;;;;;;;;;;5071527;28;20466;-60
2021/12/26 05:38:08;;;;;;;5.77;4.17;;;;;;;;;;5071444;28;20207;-60
2021/12/26 05:40:34;;;;;;;7.50;4.43;;;;;;;;;;5071336;28;20243;-60
2021/12/26 05:43:00;;;;;;;6.67;4.80;;;;;;;;;;5071357;28;20445;-60
2021/12/26 05:45:27;;;;;;;8.82;4.65;;;;;;;;;;5071057;28;20429;-59
2021/12/26 05:47:53;;;;;;;7.17;4.63;;;;;;;;;;5071099;28;20282;-59
2021/12/26 05:50:20;;;;;;;4.37;3.93;;;;;;;;;;5071282;28;20449;-60
2021/12/26 05:52:46;;;;;;;4.97;4.33;;;;;;;;;;5072670;28;20218;-60
2021/12/26 05:55:12;;;;;;;6.63;4.90;;;;;;;;;;5075113;28;20480;-61
2021/12/26 05:57:38;;;;;;;5.90;4.53;;;;;;;;;;5075355;28;20433;-60
2021/12/26 06:00:05;;;;;;;6.50;4.43;;;;;;;;;;5075183;28;20467;-60
2021/12/26 06:02:33;;;;;;;5.50;4.10;;;;;;;;;;5075569;28;20438;-60
2021/12/26 06:04:59;;;;;;;6.33;4.60;;;;;;;;;;5075255;28;20216;-60
2021/12/26 06:07:25;;;;;;;4.43;3.97;;;;;;;;;;5075178;28;20438;-60
2021/12/26 06:09:51;;;;;;;5.07;4.22;;;;;;;;;;5075223;28;20426;-60
2021/12/26 06:12:18;;;;;;;5.40;4.53;;;;;;;;;;5074920;28;20199;-60
2021/12/26 06:14:44;;;;;;;6.68;4.22;;;;;;;;;;5075215;28;20477;-60
2021/12/26 06:17:10;;;;;;;6.47;4.47;;;;;;;;;;5074951;28;20192;-60
2021/12/26 06:19:38;;;;;;;6.55;4.90;;;;;;;;;;5074901;28;20586;-60
2021/12/26 06:22:06;;;;;;;4.83;4.43;;;;;;;;;;5074814;28;20207;-60
2021/12/26 06:24:32;;;;;;;9.33;4.47;;;;;;;;;;5075207;28;20426;-60
2021/12/26 06:26:58;;;;;;;5.43;4.50;;;;;;;;;;5074222;28;20440;-61
2021/12/26 06:29:24;;;;;;;5.90;4.87;;;;;;;;;;5074013;28;20457;-61
2021/12/26 06:31:50;;;;;;;6.70;4.37;;;;;;;;;;5074557;28;20936;-60
2021/12/26 06:34:16;;;;;;;6.68;4.55;;;;;;;;;;5074398;28;20758;-60
2021/12/26 06:36:43;;;;;;;7.43;5.03;;;;;;;;;;5074745;28;20290;-60
2021/12/26 06:39:09;;;;;;;5.90;4.90;;;;;;;;;;5074581;28;20433;-60
2021/12/26 06:41:38;;;;;;;7.20;5.13;;;;;;;;;;5074497;28;20975;-62
2021/12/26 06:44:07;;;;;;;8.27;5.15;;;;;;;;;;5074438;28;20198;-62
2021/12/26 06:46:33;;;;;;;6.97;4.47;;;;;;;;;;5074672;28;20203;-61
2021/12/26 06:48:59;;;;;;;6.83;4.80;;;;;;;;;;5074640;28;20430;-60
2021/12/26 06:51:25;;;;;;;5.93;4.67;;;;;;;;;;5074460;28;20445;-61
2021/12/26 06:53:52;;;;;;;5.87;4.83;;;;;;;;;;5074331;28;20478;-60
2021/12/26 06:56:18;;;;;;;6.75;5.15;;;;;;;;;;5074419;28;20453;-60
2021/12/26 06:58:44;;;;;;;7.43;4.37;;;;;;;;;;5074255;28;20250;-59
2021/12/26 07:01:10;;;;;;;6.33;5.17;;;;;;;;;;5074116;28;20904;-61
2021/12/26 07:03:36;;;;;;;6.70;4.67;;;;;;;;;;5074353;28;20196;-62
2021/12/26 07:06:02;;;;;;;5.83;4.53;;;;;;;;;;5073447;28;20269;-61
2021/12/26 07:08:28;;;;;;;7.30;5.00;;;;;;;;;;5074633;28;20248;-60
2021/12/26 07:10:55;;;;;;;6.03;4.80;;;;;;;;;;5074406;28;20438;-61
2021/12/26 07:13:22;;;;;;;7.53;5.20;;;;;;;;;;5074007;28;20446;-61
2021/12/26 07:15:48;;;;;;;6.83;4.40;;;;;;;;;;5072699;28;20755;-60
2021/12/26 07:18:14;;;;;;;6.97;4.93;;;;;;;;;;5073956;28;20445;-61
2021/12/26 07:20:40;;;;;;;7.37;4.87;;;;;;;;;;5073798;28;20440;-61
2021/12/26 07:23:06;;;;;;;6.28;4.50;;;;;;;;;;5073714;28;20553;-60
2021/12/26 07:25:32;;;;;;;10.20;5.40;;;;;;;;;;5073402;28;20249;-60
2021/12/26 07:27:59;;;;;;;7.30;5.28;;;;;;;;;;5071736;28;20473;-60
2021/12/26 07:30:26;;;;;;;7.93;5.33;;;;;;;;;;5071898;28;20265;-60
2021/12/26 07:32:52;;;;;;;5.90;4.90;;;;;;;;;;5073614;28;21023;-61
2021/12/26 07:35:18;;;;;;;6.03;4.63;;;;;;;;;;5072880;28;20469;-61
2021/12/26 07:37:45;;;;;;;6.38;4.68;;;;;;;;;;5073501;28;20441;-61
2021/12/26 07:40:12;;;;;;;8.77;5.20;;;;;;;;;;5073096;28;20314;-61
2021/12/26 07:42:39;;;;;;;5.33;4.57;;;;;;;;;;5073038;28;20454;-62
2021/12/26 07:45:13;;;;;;;6.27;4.80;;;;;;;;;;5073412;28;20518;-61
2021/12/26 07:47:40;;;;;;;6.33;4.67;;;;;;;;;;5069063;28;20469;-61
2021/12/26 07:50:06;;;;;;;5.23;4.57;;;;;;;;;;5072571;28;20901;-61
2021/12/26 07:52:37;;;;;;;8.80;5.13;;;;;;;;;;5073140;28;20485;-61
2021/12/26 07:55:04;;;;;;;7.03;4.90;;;;;;;;;;5072804;28;20481;-60
2021/12/26 07:57:30;;;;;;;5.23;4.43;;;;;;;;;;5072571;28;20442;-60
2021/12/26 07:59:56;;;;;;;6.73;4.80;;;;;;;;;;5073202;28;20908;-61
2021/12/26 08:02:24;;;;;;;11.80;7.13;;;;;;;;;;5072889;28;20980;-61
2021/12/26 08:04:49;;;;;;;9.17;7.13;;;;;;;;;;5073002;28;20427;-61
2021/12/26 08:07:16;;;;;;;7.10;4.73;;;;;;;;;;5073004;28;20472;-60
2021/12/26 08:09:42;;;;;;;6.57;5.07;;;;;;;;;;5073194;28;20245;-61
2021/12/26 08:12:08;;;;;;;6.97;4.97;;;;;;;;;;5072962;28;20511;-61
2021/12/26 08:14:34;;;;;;;5.80;5.17;;;;;;;;;;5070958;28;20466;-60
2021/12/26 08:17:01;;;;;;;7.73;5.00;;;;;;;;;;5071736;28;20438;-60
2021/12/26 08:19:28;;;;;;;7.17;4.83;;;;;;;;;;5072352;28;20438;-61
2021/12/26 08:21:54;;;;;;;5.87;4.90;;;;;;;;;;5072379;28;20434;-61
2021/12/26 08:24:22;;;;;;;7.63;4.57;;;;;;;;;;5072170;28;20532;-61
2021/12/26 08:26:51;;;;;;;5.77;4.60;;;;;;;;;;5072295;28;20442;-61
2021/12/26 08:29:17;;;;;;;5.33;4.37;;;;;;;;;;5072149;28;20438;-61
2021/12/26 08:31:43;;;;;;;5.87;4.63;;;;;;;;;;5072189;28;20441;-62
2021/12/26 08:34:09;;;;;;;9.37;5.80;;;;;;;;;;5072167;28;20557;-61
2021/12/26 08:36:36;;;;;;;5.43;4.43;;;;;;;;;;5071770;28;20487;-61
2021/12/26 08:39:03;;;;;;;9.03;5.00;;;;;;;;;;5072080;28;20454;-61
2021/12/26 08:41:29;;;;;;;6.63;4.47;;;;;;;;;;5071644;28;20469;-61
2021/12/26 08:43:55;;;;;;;5.53;4.47;;;;;;;;;;5071544;28;20454;-61
2021/12/26 08:46:22;;;;;;;5.10;4.30;;;;;;;;;;5071483;28;20442;-61
2021/12/26 08:48:48;;;;;;;6.33;4.83;;;;;;;;;;5071869;28;20438;-61
2021/12/26 08:51:14;;;;;;;6.77;5.03;;;;;;;;;;5071862;28;20432;-61
2021/12/26 08:53:41;;;;;;;4.67;4.20;;;;;;;;;;5071640;28;20430;-62
2021/12/26 08:56:07;;;;;;;7.30;4.90;;;;;;;;;;5071595;28;20458;-61
2021/12/26 08:58:33;;;;;;;5.67;4.50;;;;;;;;;;5071612;28;20568;-62
2021/12/26 09:00:59;;;;;;;7.10;4.30;;;;;;;;;;5071596;28;20294;-62
2021/12/26 09:03:25;;;;;;;4.70;4.00;;;;;;;;;;5071688;28;20990;-61
2021/12/26 09:05:51;;;;;;;5.80;4.70;;;;;;;;;;5071513;28;20220;-62
2021/12/26 09:08:17;;;;;;;5.23;4.10;;;;;;;;;;5071330;28;20449;-62
2021/12/26 09:10:45;;;;;;;5.53;4.00;;;;;;;;;;5071631;28;20943;-62
2021/12/26 09:13:11;;;;;;;5.47;4.00;;;;;;;;;;5071176;28;20488;-62
2021/12/26 09:15:38;;;;;;;4.63;4.13;;;;;;;;;;5071393;28;20477;-61
2021/12/26 09:18:04;;;;;;;5.17;3.97;;;;;;;;;;5071385;28;20195;-64
2021/12/26 09:20:31;;;;;;;5.00;4.07;;;;;;;;;;5071550;28;20482;-63
2021/12/26 09:22:57;;;;;;;3.67;3.30;;;;;;;;;;5071326;28;20228;-64
2021/12/26 09:25:24;;;;;;;4.90;3.87;;;;;;;;;;5071126;28;20195;-62
2021/12/26 09:27:52;;;;;;;6.50;3.93;;;;;;;;;;5070853;28;20206;-62
2021/12/26 09:30:18;;;;;;;5.17;3.83;;;;;;;;;;5071351;28;20596;-62
2021/12/26 09:32:44;;;;;;;5.40;4.10;;;;;;;;;;5071526;28;20192;-62
2021/12/26 09:35:11;;;;;;;5.83;4.13;;;;;;;;;;5071363;28;20223;-63
2021/12/26 09:37:37;;;;;;;5.07;4.20;;;;;;;;;;5071230;28;20660;-62
2021/12/26 09:40:03;;;;;;;4.40;4.00;;;;;;;;;;5071096;28;20259;-61
2021/12/26 09:42:29;;;;;;;5.40;4.10;;;;;;;;;;5071281;28;20283;-63
2021/12/26 09:45:01;;;;;;;5.40;3.87;;;;;;;;;;5071340;28;20195;-63
2021/12/26 09:47:28;;;;;;;4.97;3.93;;;;;;;;;;5071059;28;20214;-62
2021/12/26 09:49:54;;;;;;;5.00;4.00;;;;;;;;;;5070915;28;20199;-63
2021/12/26 09:52:20;;;;;;;4.73;3.80;;;;;;;;;;5070905;28;20715;-62
2021/12/26 09:54:46;;;;;;;5.33;4.27;;;;;;;;;;5071110;28;20232;-63
2021/12/26 09:57:12;;;;;;;5.57;4.40;;;;;;;;;;5070809;28;20610;-62
2021/12/26 09:59:38;;;;;;;5.87;4.30;;;;;;;;;;5070890;28;20195;-62
2021/12/26 10:02:10;;;;;;;6.50;4.17;;;;;;;;;;5070774;28;20216;-62
2021/12/26 10:04:36;;;;;;;4.53;3.80;;;;;;;;;;5070843;28;20253;-61
2021/12/26 10:07:03;;;;;;;4.63;3.90;;;;;;;;;;5071139;28;20615;-63
2021/12/26 10:09:29;;;;;;;6.27;3.97;;;;;;;;;;5070956;28;20565;-63
2021/12/26 10:11:56;;;;;;;6.60;4.77;;;;;;;;;;5070881;28;20200;-61
2021/12/26 10:14:23;;;;;;;6.67;3.70;;;;;;;;;;5070748;28;20269;-61
2021/12/26 10:16:51;;;;;;;5.33;3.90;;;;;;;;;;5070794;28;20196;-62
2021/12/26 10:19:19;;;;;;;5.07;3.87;;;;;;;;;;5070985;28;20210;-62
2021/12/26 10:21:45;;;;;;;4.70;4.07;;;;;;;;;;5070974;28;20228;-62
2021/12/26 10:24:13;;;;;;;4.80;3.77;;;;;;;;;;5070905;28;20286;-62
2021/12/26 10:26:41;;;;;;;5.70;4.43;;;;;;;;;;5071060;28;20237;-61
2021/12/26 10:29:26;;;;;;;5.70;4.20;;;;;;;;;;5070995;28;20227;-61
2021/12/26 10:32:00;;;;;;;6.80;4.60;;;;;;;;;;5071129;28;20526;-62
2021/12/26 10:34:29;;;;;;;4.53;3.87;;;;;;;;;;5070957;28;20274;-62
2021/12/26 10:36:56;;;;;;;4.87;4.00;;;;;;;;;;5070695;28;20848;-62
2021/12/26 10:39:24;;;;;;;4.30;3.87;;;;;;;;;;5071186;28;20191;-62
2021/12/26 10:41:50;;;;;;;5.83;3.93;;;;;;;;;;5074210;28;20365;-62
2021/12/26 10:44:21;;;;;;;5.23;4.23;;;;;;;;;;5074289;28;20654;-62
2021/12/26 10:46:47;;;;;;;4.70;3.90;;;;;;;;;;5074655;28;20200;-64
2021/12/26 10:49:28;;;;;;;5.23;3.97;;;;;;;;;;5074382;28;20199;-63
2021/12/26 10:51:56;;;;;;;4.90;4.20;;;;;;;;;;5072128;28;20654;-63
2021/12/26 10:54:31;;;;;;;6.77;4.27;;;;;;;;;;5074153;28;20223;-62
2021/12/26 10:57:10;;;;;;;4.77;3.87;;;;;;;;;;5074627;28;20278;-63
2021/12/26 10:59:37;;;;;;;4.07;3.67;;;;;;;;;;5074522;28;20206;-63
2021/12/26 11:02:03;;;;;;;5.40;4.00;;;;;;;;;;5074250;28;20598;-62
2021/12/26 11:04:29;;;;;;;5.70;4.40;;;;;;;;;;5074134;28;20256;-62
2021/12/26 11:07:04;;;;;;;7.97;6.03;;;;;;;;;;5074170;28;20224;-63
2021/12/26 11:09:30;;;;;;;6.83;4.67;;;;;;;;;;5074268;28;20199;-62
2021/12/26 11:12:00;;;;;;;6.43;5.57;;;;;;;;;;5073809;28;20203;-62
2021/12/26 11:14:26;;;;;;;5.97;4.83;;;;;;;;;;5073831;28;20281;-63
2021/12/26 11:16:52;;;;;;;6.00;4.53;;;;;;;;;;5073968;28;20196;-63
2021/12/26 11:19:33;;;;;;;5.63;4.60;;;;;;;;;;5073679;28;20608;-62
2021/12/26 11:21:59;;;;;;;5.60;4.57;;;;;;;;;;5073627;28;20601;-62
2021/12/26 11:24:26;;;;;;;5.57;4.40;;;;;;;;;;5073486;28;20488;-62
2021/12/26 11:26:52;;;;;;;6.40;4.80;;;;;;;;;;5073344;28;20204;-62
2021/12/26 11:29:18;;;;;;;7.17;4.83;;;;;;;;;;5073548;28;20258;-65
2021/12/26 11:31:44;;;;;;;6.43;4.53;;;;;;;;;;5073709;28;20642;-63
2021/12/26 11:34:10;;;;;;;5.80;4.40;;;;;;;;;;5073349;28;20219;-63
2021/12/26 11:36:37;;;;;;;7.00;4.90;;;;;;;;;;5073158;28;20199;-62
2021/12/26 11:39:06;;;;;;;5.30;4.23;;;;;;;;;;5073830;28;20204;-64
2021/12/26 11:41:42;;;;;;;7.33;5.60;;;;;;;;;;5072784;28;20240;-62
2021/12/26 11:44:20;;;;;;;7.37;4.73;;;;;;;;;;5071187;28;20491;-62
2021/12/26 11:46:50;;;;;;;6.13;4.70;;;;;;;;;;5073609;28;20301;-62
2021/12/26 11:49:37;;;;;;;4.77;4.00;;;;;;;;;;5072305;28;20203;-62
2021/12/26 11:52:09;;;;;;;5.83;4.07;;;;;;;;;;5071533;28;20612;-62
2021/12/26 11:54:48;;;;;;;5.67;4.03;;;;;;;;;;5073082;28;20233;-63
2021/12/26 11:57:22;;;;;;;4.77;3.80;;;;;;;;;;5072688;28;20286;-63
2021/12/26 12:00:04;;;;;;;6.50;4.63;;;;;;;;;;5073018;28;20310;-62
2021/12/26 12:02:35;;;;;;;6.53;4.50;;;;;;;;;;5072999;28;20253;-63
2021/12/26 12:05:12;;;;;;;5.63;3.90;;;;;;;;;;5072847;28;20215;-62
2021/12/26 12:07:45;;;;;;;6.40;5.17;;;;;;;;;;5072623;28;20199;-63
2021/12/26 12:10:26;;;;;;;5.57;4.23;;;;;;;;;;5073265;28;20199;-62
2021/12/26 12:12:53;;;;;;;6.00;4.73;;;;;;;;;;5069232;28;20199;-61
2021/12/26 12:15:40;;;;;;;7.30;4.57;;;;;;;;;;5072180;28;20242;-61
2021/12/26 12:18:08;;;;;;;5.50;4.90;;;;;;;;;;5071963;28;20242;-61
2021/12/26 12:20:34;;;;;;;6.73;4.53;;;;;;;;;;5073479;28;20214;-63
2021/12/26 12:23:10;;;;;;;7.13;5.20;;;;;;;;;;5073056;28;20281;-61
2021/12/26 12:25:39;;;;;;;6.80;4.90;;;;;;;;;;5072857;28;20217;-62
2021/12/26 12:28:08;;;;;;;5.33;4.47;;;;;;;;;;5072645;28;20249;-62
2021/12/26 12:30:35;;;;;;;7.10;4.63;;;;;;;;;;5072770;28;20204;-62
2021/12/26 12:33:12;;;;;;;6.33;5.50;;;;;;;;;;5072401;28;20192;-61
2021/12/26 12:35:47;;;;;;;6.23;5.17;;;;;;;;;;5072497;28;20227;-62
2021/12/26 12:38:21;;;;;;;6.07;4.70;;;;;;;;;;5072559;28;20676;-62
2021/12/26 12:40:47;;;;;;;6.53;4.80;;;;;;;;;;5072505;28;20322;-63
2021/12/26 12:43:16;;;;;;;6.97;5.07;;;;;;;;;;5072328;28;20202;-62
2021/12/26 12:46:04;;;;;;;5.97;5.23;;;;;;;;;;5072460;28;20221;-61
2021/12/26 12:48:32;;;;;;;9.33;5.73;;;;;;;;;;5072272;28;20191;-62
2021/12/26 12:50:59;;;;;;;8.03;5.40;;;;;;;;;;5072486;28;20605;-63
2021/12/26 12:53:41;;;;;;;6.53;5.40;;;;;;;;;;5072326;28;20286;-62
2021/12/26 12:56:07;;;;;;;6.97;5.40;;;;;;;;;;5072034;28;20967;-62
2021/12/26 12:58:36;;;;;;;5.90;5.23;;;;;;;;;;5072122;28;20469;-62
2021/12/26 13:01:05;;;;;;;6.90;5.57;;;;;;;;;;5072136;28;20442;-61
2021/12/26 13:03:34;;;;;;;7.60;6.23;;;;;;;;;;5071760;28;20445;-61
2021/12/26 13:06:06;;;;;;;12.87;7.70;;;;;;;;;;5072078;28;20503;-61
2021/12/26 13:08:33;;;;;;;9.70;7.00;;;;;;;;;;5071883;28;20977;-59
2021/12/26 13:11:01;;;;;;;11.50;7.47;;;;;;;;;;5071953;28;20449;-62
2021/12/26 13:13:27;;;;;;;9.37;6.37;;;;;;;;;;5071662;28;21004;-65
2021/12/26 13:15:56;;;;;;;8.23;6.60;;;;;;;;;;5071395;28;20492;-63
2021/12/26 13:18:23;;;;;;;10.07;6.57;;;;;;;;;;5071701;28;20877;-63
2021/12/26 13:20:50;;;;;;;14.17;8.90;;;;;;;;;;5071003;28;20960;-64
2021/12/26 13:23:16;;;;;;;10.60;7.30;;;;;;;;;;5071598;28;20846;-65
2021/12/26 13:25:45;;;;;;;9.47;7.23;;;;;;;;;;5071528;28;20808;-63
2021/12/26 13:28:18;;;;;;;9.07;6.83;;;;;;;;;;5071507;28;20488;-63
2021/12/26 13:30:45;;;;;;;9.30;6.60;;;;;;;;;;5071927;28;20438;-63
2021/12/26 13:33:15;;;;;;;8.77;6.23;;;;;;;;;;5071515;28;20430;-64
2021/12/26 13:35:41;;;;;;;8.30;6.97;;;;;;;;;;5071433;28;20509;-64
2021/12/26 13:38:07;;;;;;;21.90;16.07;;;;;;;;;;5071722;28;20437;-65
2021/12/26 13:40:33;;;;;;;7.47;6.30;;;;;;;;;;5071643;28;20564;-64
2021/12/26 13:42:59;;;;;;;8.23;6.20;;;;;;;;;;5071545;28;20954;-65
2021/12/26 13:45:29;;;;;;;10.90;7.57;;;;;;;;;;5071788;28;20430;-63
2021/12/26 13:47:55;;;;;;;8.23;5.73;;;;;;;;;;5071903;28;20195;-63
2021/12/26 13:50:23;;;;;;;9.43;6.17;;;;;;;;;;5071622;28;20460;-65
2021/12/26 13:53:01;;;;;;;7.37;5.83;;;;;;;;;;5071451;28;20242;-64
2021/12/26 13:55:27;;;;;;;8.73;6.20;;;;;;;;;;5064759;28;20564;-59
2021/12/26 13:57:56;;;;;;;8.67;6.10;;;;;;;;;;5068134;28;20434;-61
2021/12/26 14:00:22;;;;;;;8.13;6.47;;;;;;;;;;5071448;28;20449;-59
2021/12/26 14:02:48;;;;;;;7.87;6.37;;;;;;;;;;5071529;28;20806;-59
2021/12/26 14:05:18;;;;;;;7.63;5.90;;;;;;;;;;5071524;28;20214;-60
2021/12/26 14:07:51;;;;;;;8.27;5.97;;;;;;;;;;5070486;28;20910;-60
2021/12/26 14:10:19;;;;;;;7.90;5.77;;;;;;;;;;5071429;28;20438;-60
2021/12/26 14:12:46;;;;;;;8.93;6.93;;;;;;;;;;5070934;28;20960;-59
2021/12/26 14:17:57;;;;;;;7.13;6.17;;;;;;;;;;5075224;28;20919;-59
2021/12/26 14:20:23;;;;;;;7.93;6.27;;;;;;;;;;5075090;28;20449;-58
2021/12/26 14:22:50;;;;;;;9.33;7.63;;;;;;;;;;5075107;28;20456;-59
2021/12/26 14:25:16;;;;;;;7.67;6.73;;;;;;;;;;5074981;28;20486;-59
2021/12/26 14:27:43;;;;;;;10.97;6.63;;;;;;;;;;5075125;28;20471;-58
2021/12/26 14:30:09;;;;;;;9.30;7.27;;;;;;;;;;5074885;28;21053;-59
2021/12/26 14:32:35;;;;;;;9.90;6.93;;;;;;;;;;5074873;28;20509;-59
2021/12/26 14:35:01;;;;;;;9.33;7.20;;;;;;;;;;5074950;28;20836;-60
2021/12/26 14:37:27;;;;;;;11.40;7.53;;;;;;;;;;5074319;28;20944;-60
2021/12/26 14:39:56;;;;;;;7.23;6.30;;;;;;;;;;5074672;28;20289;-60
2021/12/26 14:42:23;;;;;;;8.33;6.53;;;;;;;;;;5074278;28;20437;-60
2021/12/26 14:44:49;;;;;;;8.80;7.67;;;;;;;;;;5074576;28;20517;-59
2021/12/26 14:47:16;;;;;;;10.17;8.23;;;;;;;;;;5074152;28;20995;-59
2021/12/26 14:49:44;;;;;;;10.20;8.07;;;;;;;;;;5074349;28;20437;-59
2021/12/26 14:52:10;;;;;;;12.87;9.07;;;;;;;;;;5072353;28;20440;-63
2021/12/26 14:54:38;;;;;;;14.47;10.60;;;;;;;;;;5072476;28;20481;-62